sensor_id;sensor_type;location;lat;lon;timestamp;P1;durP1;ratioP1;P2;durP2;ratioP2
17818;SDS011;9034;50.284;19.310;2022-10-23T00:01:00;58.25;;;34.97;;
17818;SDS011;9034;50.284;19.310;2022-10-23T00:02:11;64.70;;;36.08;;
17818;SDS011;9034;50.284;19.310;2022-10-23T00:03:15;52.45;;;32.53;;
17818;SDS011;9034;50.284;19.310;2022-10-23T00:04:19;64.10;;;35.70;;
17818;SDS011;9034;50.284;19.310;2022-10-23T00:05:23;53.80;;;34.70;;
17818;SDS011;9034;50.284;19.310;2022-10-23T00:06:27;62.03;;;36.97;;
17818;SDS011;9034;50.284;19.310;2022-10-23T00:07:31;65.32;;;35.60;;
17818;SDS011;9034;50.284;19.310;2022-10-23T00:08:34;57.22;;;34.75;;
17818;SDS011;9034;50.284;19.310;2022-10-23T00:09:39;60.55;;;34.65;;
17818;SDS011;9034;50.284;19.310;2022-10-23T00:10:42;57.95;;;34.63;;
17818;SDS011;9034;50.284;19.310;2022-10-23T00:11:46;56.80;;;34.20;;
17818;SDS011;9034;50.284;19.310;2022-10-23T00:12:50;59.35;;;34.88;;
17818;SDS011;9034;50.284;19.310;2022-10-23T00:13:55;55.95;;;32.70;;
17818;SDS011;9034;50.284;19.310;2022-10-23T00:14:58;59.72;;;34.42;;
17818;SDS011;9034;50.284;19.310;2022-10-23T00:16:02;54.78;;;33.40;;
17818;SDS011;9034;50.284;19.310;2022-10-23T00:17:05;65.90;;;35.22;;
17818;SDS011;9034;50.284;19.310;2022-10-23T00:18:11;62.17;;;34.63;;
17818;SDS011;9034;50.284;19.310;2022-10-23T00:19:14;58.63;;;33.83;;
17818;SDS011;9034;50.284;19.310;2022-10-23T00:20:18;56.78;;;35.03;;
17818;SDS011;9034;50.284;19.310;2022-10-23T00:21:20;62.38;;;35.15;;
17818;SDS011;9034;50.284;19.310;2022-10-23T00:22:24;58.30;;;34.42;;
17818;SDS011;9034;50.284;19.310;2022-10-23T00:23:27;63.63;;;36.05;;
17818;SDS011;9034;50.284;19.310;2022-10-23T00:24:31;62.78;;;36.70;;
17818;SDS011;9034;50.284;19.310;2022-10-23T00:27:00;61.83;;;35.38;;
17818;SDS011;9034;50.284;19.310;2022-10-23T00:28:04;58.60;;;34.88;;
17818;SDS011;9034;50.284;19.310;2022-10-23T00:29:08;58.92;;;34.30;;
17818;SDS011;9034;50.284;19.310;2022-10-23T00:30:12;58.97;;;34.45;;
17818;SDS011;9034;50.284;19.310;2022-10-23T00:31:15;55.70;;;34.33;;
17818;SDS011;9034;50.284;19.310;2022-10-23T00:32:19;57.75;;;34.95;;
17818;SDS011;9034;50.284;19.310;2022-10-23T00:33:22;55.00;;;33.38;;
17818;SDS011;9034;50.284;19.310;2022-10-23T00:34:26;54.53;;;34.75;;
17818;SDS011;9034;50.284;19.310;2022-10-23T00:35:29;59.85;;;33.38;;
17818;SDS011;9034;50.284;19.310;2022-10-23T00:36:33;55.58;;;35.35;;
17818;SDS011;9034;50.284;19.310;2022-10-23T00:37:36;59.75;;;34.80;;
17818;SDS011;9034;50.284;19.310;2022-10-23T00:38:40;61.42;;;34.88;;
17818;SDS011;9034;50.284;19.310;2022-10-23T00:39:43;56.33;;;34.47;;
17818;SDS011;9034;50.284;19.310;2022-10-23T00:40:47;63.75;;;33.88;;
17818;SDS011;9034;50.284;19.310;2022-10-23T00:41:55;67.72;;;34.47;;
17818;SDS011;9034;50.284;19.310;2022-10-23T00:43:00;56.03;;;34.72;;
17818;SDS011;9034;50.284;19.310;2022-10-23T00:44:05;54.38;;;33.35;;
17818;SDS011;9034;50.284;19.310;2022-10-23T00:45:13;62.00;;;34.55;;
17818;SDS011;9034;50.284;19.310;2022-10-23T00:46:20;56.10;;;34.40;;
17818;SDS011;9034;50.284;19.310;2022-10-23T00:47:24;60.97;;;34.08;;
17818;SDS011;9034;50.284;19.310;2022-10-23T00:48:27;60.33;;;35.22;;
17818;SDS011;9034;50.284;19.310;2022-10-23T00:49:31;58.60;;;34.30;;
17818;SDS011;9034;50.284;19.310;2022-10-23T00:50:35;59.15;;;34.67;;
17818;SDS011;9034;50.284;19.310;2022-10-23T00:51:40;61.72;;;34.75;;
17818;SDS011;9034;50.284;19.310;2022-10-23T00:52:45;60.83;;;33.78;;
17818;SDS011;9034;50.284;19.310;2022-10-23T00:53:51;58.17;;;34.70;;
17818;SDS011;9034;50.284;19.310;2022-10-23T00:55:19;53.97;;;33.88;;
17818;SDS011;9034;50.284;19.310;2022-10-23T00:56:24;57.35;;;34.97;;
17818;SDS011;9034;50.284;19.310;2022-10-23T00:57:27;60.80;;;36.10;;
17818;SDS011;9034;50.284;19.310;2022-10-23T00:58:33;59.10;;;35.72;;
17818;SDS011;9034;50.284;19.310;2022-10-23T00:59:36;55.72;;;34.20;;
17818;SDS011;9034;50.284;19.310;2022-10-23T01:00:42;58.25;;;35.03;;
17818;SDS011;9034;50.284;19.310;2022-10-23T01:01:47;77.97;;;35.78;;
17818;SDS011;9034;50.284;19.310;2022-10-23T01:02:50;106.25;;;36.92;;
17818;SDS011;9034;50.284;19.310;2022-10-23T01:03:54;70.57;;;34.78;;
17818;SDS011;9034;50.284;19.310;2022-10-23T01:04:57;64.15;;;35.60;;
17818;SDS011;9034;50.284;19.310;2022-10-23T01:06:02;59.05;;;33.83;;
17818;SDS011;9034;50.284;19.310;2022-10-23T01:07:10;65.82;;;35.20;;
17818;SDS011;9034;50.284;19.310;2022-10-23T01:08:21;60.92;;;34.28;;
17818;SDS011;9034;50.284;19.310;2022-10-23T01:09:28;74.13;;;36.10;;
17818;SDS011;9034;50.284;19.310;2022-10-23T01:10:39;69.35;;;37.30;;
17818;SDS011;9034;50.284;19.310;2022-10-23T01:11:47;61.28;;;34.75;;
17818;SDS011;9034;50.284;19.310;2022-10-23T01:12:54;58.67;;;34.67;;
17818;SDS011;9034;50.284;19.310;2022-10-23T01:14:07;68.60;;;35.90;;
17818;SDS011;9034;50.284;19.310;2022-10-23T01:15:18;74.95;;;35.78;;
17818;SDS011;9034;50.284;19.310;2022-10-23T01:16:26;64.63;;;35.35;;
17818;SDS011;9034;50.284;19.310;2022-10-23T01:17:34;72.55;;;36.47;;
17818;SDS011;9034;50.284;19.310;2022-10-23T01:18:46;63.80;;;35.50;;
17818;SDS011;9034;50.284;19.310;2022-10-23T01:19:56;63.50;;;36.72;;
17818;SDS011;9034;50.284;19.310;2022-10-23T01:21:07;70.03;;;34.50;;
17818;SDS011;9034;50.284;19.310;2022-10-23T01:22:17;66.45;;;35.85;;
17818;SDS011;9034;50.284;19.310;2022-10-23T01:23:46;68.28;;;34.63;;
17818;SDS011;9034;50.284;19.310;2022-10-23T01:24:57;69.55;;;35.72;;
17818;SDS011;9034;50.284;19.310;2022-10-23T01:26:10;67.68;;;35.72;;
17818;SDS011;9034;50.284;19.310;2022-10-23T01:27:31;64.80;;;34.95;;
17818;SDS011;9034;50.284;19.310;2022-10-23T01:28:38;68.68;;;35.85;;
17818;SDS011;9034;50.284;19.310;2022-10-23T01:29:45;63.10;;;34.13;;
17818;SDS011;9034;50.284;19.310;2022-10-23T01:30:51;66.68;;;33.88;;
17818;SDS011;9034;50.284;19.310;2022-10-23T01:31:56;69.00;;;36.88;;
17818;SDS011;9034;50.284;19.310;2022-10-23T01:33:02;57.60;;;34.38;;
17818;SDS011;9034;50.284;19.310;2022-10-23T01:34:16;66.45;;;35.60;;
17818;SDS011;9034;50.284;19.310;2022-10-23T01:35:23;63.05;;;36.28;;
17818;SDS011;9034;50.284;19.310;2022-10-23T01:36:32;64.97;;;34.75;;
17818;SDS011;9034;50.284;19.310;2022-10-23T01:37:38;69.38;;;35.83;;
17818;SDS011;9034;50.284;19.310;2022-10-23T01:38:43;58.90;;;34.92;;
17818;SDS011;9034;50.284;19.310;2022-10-23T01:39:56;62.20;;;34.40;;
17818;SDS011;9034;50.284;19.310;2022-10-23T01:41:04;62.72;;;34.90;;
17818;SDS011;9034;50.284;19.310;2022-10-23T01:42:10;59.58;;;33.92;;
17818;SDS011;9034;50.284;19.310;2022-10-23T01:43:18;63.03;;;34.67;;
17818;SDS011;9034;50.284;19.310;2022-10-23T01:44:25;61.00;;;33.92;;
17818;SDS011;9034;50.284;19.310;2022-10-23T01:45:31;54.95;;;34.67;;
17818;SDS011;9034;50.284;19.310;2022-10-23T01:46:39;58.85;;;33.67;;
17818;SDS011;9034;50.284;19.310;2022-10-23T01:47:44;56.92;;;32.65;;
17818;SDS011;9034;50.284;19.310;2022-10-23T01:48:50;58.30;;;34.35;;
17818;SDS011;9034;50.284;19.310;2022-10-23T01:49:55;60.13;;;35.17;;
17818;SDS011;9034;50.284;19.310;2022-10-23T01:51:02;64.32;;;35.97;;
17818;SDS011;9034;50.284;19.310;2022-10-23T01:52:09;66.32;;;34.83;;
17818;SDS011;9034;50.284;19.310;2022-10-23T01:53:17;54.78;;;34.15;;
17818;SDS011;9034;50.284;19.310;2022-10-23T01:54:21;61.53;;;34.92;;
17818;SDS011;9034;50.284;19.310;2022-10-23T01:55:28;55.45;;;33.38;;
17818;SDS011;9034;50.284;19.310;2022-10-23T01:56:34;60.45;;;34.67;;
17818;SDS011;9034;50.284;19.310;2022-10-23T01:57:40;63.42;;;35.33;;
17818;SDS011;9034;50.284;19.310;2022-10-23T01:58:48;64.35;;;34.28;;
17818;SDS011;9034;50.284;19.310;2022-10-23T01:59:56;76.95;;;35.33;;
17818;SDS011;9034;50.284;19.310;2022-10-23T02:01:00;69.97;;;35.53;;
17818;SDS011;9034;50.284;19.310;2022-10-23T02:02:10;62.70;;;34.95;;
17818;SDS011;9034;50.284;19.310;2022-10-23T02:03:17;75.25;;;36.28;;
17818;SDS011;9034;50.284;19.310;2022-10-23T02:04:24;63.65;;;35.25;;
17818;SDS011;9034;50.284;19.310;2022-10-23T02:05:29;61.80;;;34.85;;
17818;SDS011;9034;50.284;19.310;2022-10-23T02:06:35;59.58;;;33.65;;
17818;SDS011;9034;50.284;19.310;2022-10-23T02:07:38;64.97;;;35.63;;
17818;SDS011;9034;50.284;19.310;2022-10-23T02:08:42;70.13;;;35.45;;
17818;SDS011;9034;50.284;19.310;2022-10-23T02:09:45;67.03;;;34.72;;
17818;SDS011;9034;50.284;19.310;2022-10-23T02:10:51;60.38;;;34.10;;
17818;SDS011;9034;50.284;19.310;2022-10-23T02:11:58;63.58;;;33.35;;
17818;SDS011;9034;50.284;19.310;2022-10-23T02:13:06;73.95;;;35.30;;
17818;SDS011;9034;50.284;19.310;2022-10-23T02:14:15;74.20;;;34.22;;
17818;SDS011;9034;50.284;19.310;2022-10-23T02:15:25;70.55;;;35.08;;
17818;SDS011;9034;50.284;19.310;2022-10-23T02:16:33;69.85;;;35.35;;
17818;SDS011;9034;50.284;19.310;2022-10-23T02:17:42;94.40;;;37.65;;
17818;SDS011;9034;50.284;19.310;2022-10-23T02:18:50;72.10;;;35.47;;
17818;SDS011;9034;50.284;19.310;2022-10-23T02:19:57;87.03;;;36.70;;
17818;SDS011;9034;50.284;19.310;2022-10-23T02:21:06;87.38;;;36.72;;
17818;SDS011;9034;50.284;19.310;2022-10-23T02:22:12;80.88;;;35.47;;
17818;SDS011;9034;50.284;19.310;2022-10-23T02:23:19;74.40;;;36.33;;
17818;SDS011;9034;50.284;19.310;2022-10-23T02:24:25;68.63;;;36.92;;
17818;SDS011;9034;50.284;19.310;2022-10-23T02:25:32;81.90;;;37.80;;
17818;SDS011;9034;50.284;19.310;2022-10-23T02:26:39;70.82;;;36.28;;
17818;SDS011;9034;50.284;19.310;2022-10-23T02:27:46;71.85;;;37.25;;
17818;SDS011;9034;50.284;19.310;2022-10-23T02:28:51;69.63;;;37.10;;
17818;SDS011;9034;50.284;19.310;2022-10-23T02:30:01;90.00;;;37.72;;
17818;SDS011;9034;50.284;19.310;2022-10-23T02:31:07;103.35;;;38.90;;
17818;SDS011;9034;50.284;19.310;2022-10-23T02:32:12;86.63;;;37.28;;
17818;SDS011;9034;50.284;19.310;2022-10-23T02:33:16;76.80;;;37.58;;
17818;SDS011;9034;50.284;19.310;2022-10-23T02:34:20;79.22;;;38.30;;
17818;SDS011;9034;50.284;19.310;2022-10-23T02:35:23;81.57;;;38.10;;
17818;SDS011;9034;50.284;19.310;2022-10-23T02:36:39;88.38;;;39.08;;
17818;SDS011;9034;50.284;19.310;2022-10-23T02:37:50;95.97;;;39.08;;
17818;SDS011;9034;50.284;19.310;2022-10-23T02:38:57;91.88;;;38.72;;
17818;SDS011;9034;50.284;19.310;2022-10-23T02:40:02;85.68;;;40.58;;
17818;SDS011;9034;50.284;19.310;2022-10-23T02:41:21;82.07;;;40.90;;
17818;SDS011;9034;50.284;19.310;2022-10-23T02:42:29;100.03;;;40.15;;
17818;SDS011;9034;50.284;19.310;2022-10-23T02:43:35;102.20;;;40.38;;
17818;SDS011;9034;50.284;19.310;2022-10-23T02:44:45;94.22;;;40.03;;
17818;SDS011;9034;50.284;19.310;2022-10-23T02:45:58;83.72;;;39.95;;
17818;SDS011;9034;50.284;19.310;2022-10-23T02:47:07;109.53;;;40.47;;
17818;SDS011;9034;50.284;19.310;2022-10-23T02:48:16;104.13;;;40.40;;
17818;SDS011;9034;50.284;19.310;2022-10-23T02:49:23;89.47;;;40.67;;
17818;SDS011;9034;50.284;19.310;2022-10-23T02:50:31;101.85;;;42.10;;
17818;SDS011;9034;50.284;19.310;2022-10-23T02:51:39;97.10;;;40.53;;
17818;SDS011;9034;50.284;19.310;2022-10-23T02:52:57;97.80;;;38.63;;
17818;SDS011;9034;50.284;19.310;2022-10-23T02:54:04;77.60;;;37.33;;
17818;SDS011;9034;50.284;19.310;2022-10-23T02:55:17;83.03;;;39.30;;
17818;SDS011;9034;50.284;19.310;2022-10-23T02:56:26;87.28;;;38.72;;
17818;SDS011;9034;50.284;19.310;2022-10-23T02:57:38;78.75;;;37.67;;
17818;SDS011;9034;50.284;19.310;2022-10-23T02:58:46;79.43;;;36.47;;
17818;SDS011;9034;50.284;19.310;2022-10-23T03:00:00;74.78;;;36.55;;
17818;SDS011;9034;50.284;19.310;2022-10-23T03:01:09;83.05;;;36.70;;
17818;SDS011;9034;50.284;19.310;2022-10-23T03:02:16;70.65;;;35.00;;
17818;SDS011;9034;50.284;19.310;2022-10-23T03:03:23;82.03;;;35.60;;
17818;SDS011;9034;50.284;19.310;2022-10-23T03:04:29;75.15;;;35.47;;
17818;SDS011;9034;50.284;19.310;2022-10-23T03:05:33;81.05;;;37.03;;
17818;SDS011;9034;50.284;19.310;2022-10-23T03:06:39;75.72;;;34.47;;
17818;SDS011;9034;50.284;19.310;2022-10-23T03:07:47;75.90;;;34.90;;
17818;SDS011;9034;50.284;19.310;2022-10-23T03:08:52;87.57;;;35.50;;
17818;SDS011;9034;50.284;19.310;2022-10-23T03:09:59;81.68;;;34.97;;
17818;SDS011;9034;50.284;19.310;2022-10-23T03:11:01;76.45;;;34.92;;
17818;SDS011;9034;50.284;19.310;2022-10-23T03:12:05;77.88;;;34.42;;
17818;SDS011;9034;50.284;19.310;2022-10-23T03:13:09;68.75;;;34.33;;
17818;SDS011;9034;50.284;19.310;2022-10-23T03:14:15;70.03;;;35.22;;
17818;SDS011;9034;50.284;19.310;2022-10-23T03:15:18;83.43;;;34.85;;
17818;SDS011;9034;50.284;19.310;2022-10-23T03:16:25;73.93;;;34.80;;
17818;SDS011;9034;50.284;19.310;2022-10-23T03:17:29;66.22;;;33.20;;
17818;SDS011;9034;50.284;19.310;2022-10-23T03:18:34;71.07;;;33.80;;
17818;SDS011;9034;50.284;19.310;2022-10-23T03:19:37;64.80;;;32.97;;
17818;SDS011;9034;50.284;19.310;2022-10-23T03:20:41;67.22;;;32.60;;
17818;SDS011;9034;50.284;19.310;2022-10-23T03:21:44;59.63;;;31.35;;
17818;SDS011;9034;50.284;19.310;2022-10-23T03:22:47;66.47;;;32.95;;
17818;SDS011;9034;50.284;19.310;2022-10-23T03:23:51;63.63;;;32.55;;
17818;SDS011;9034;50.284;19.310;2022-10-23T03:25:02;66.28;;;32.97;;
17818;SDS011;9034;50.284;19.310;2022-10-23T03:26:08;67.05;;;33.00;;
17818;SDS011;9034;50.284;19.310;2022-10-23T03:27:16;66.75;;;32.15;;
17818;SDS011;9034;50.284;19.310;2022-10-23T03:28:20;62.40;;;33.75;;
17818;SDS011;9034;50.284;19.310;2022-10-23T03:29:22;66.30;;;32.20;;
17818;SDS011;9034;50.284;19.310;2022-10-23T03:30:26;62.22;;;31.65;;
17818;SDS011;9034;50.284;19.310;2022-10-23T03:31:30;61.90;;;31.90;;
17818;SDS011;9034;50.284;19.310;2022-10-23T03:32:34;65.18;;;32.08;;
17818;SDS011;9034;50.284;19.310;2022-10-23T03:33:37;58.55;;;31.92;;
17818;SDS011;9034;50.284;19.310;2022-10-23T03:34:43;60.08;;;32.78;;
17818;SDS011;9034;50.284;19.310;2022-10-23T03:35:46;58.72;;;31.58;;
17818;SDS011;9034;50.284;19.310;2022-10-23T03:36:50;57.92;;;30.55;;
17818;SDS011;9034;50.284;19.310;2022-10-23T03:37:54;63.00;;;31.63;;
17818;SDS011;9034;50.284;19.310;2022-10-23T03:38:59;66.25;;;32.92;;
17818;SDS011;9034;50.284;19.310;2022-10-23T03:40:05;62.42;;;31.88;;
17818;SDS011;9034;50.284;19.310;2022-10-23T03:41:10;61.97;;;31.75;;
17818;SDS011;9034;50.284;19.310;2022-10-23T03:42:13;59.72;;;31.45;;
17818;SDS011;9034;50.284;19.310;2022-10-23T03:43:17;63.40;;;32.55;;
17818;SDS011;9034;50.284;19.310;2022-10-23T03:44:21;60.10;;;31.85;;
17818;SDS011;9034;50.284;19.310;2022-10-23T03:45:24;64.78;;;30.85;;
17818;SDS011;9034;50.284;19.310;2022-10-23T03:46:27;59.97;;;30.15;;
17818;SDS011;9034;50.284;19.310;2022-10-23T03:47:31;58.58;;;30.08;;
17818;SDS011;9034;50.284;19.310;2022-10-23T03:48:42;64.75;;;30.38;;
17818;SDS011;9034;50.284;19.310;2022-10-23T03:49:45;64.38;;;31.55;;
17818;SDS011;9034;50.284;19.310;2022-10-23T03:50:49;61.78;;;32.70;;
17818;SDS011;9034;50.284;19.310;2022-10-23T03:51:52;69.43;;;31.63;;
17818;SDS011;9034;50.284;19.310;2022-10-23T03:52:56;60.38;;;30.85;;
17818;SDS011;9034;50.284;19.310;2022-10-23T03:53:59;53.05;;;28.85;;
17818;SDS011;9034;50.284;19.310;2022-10-23T03:55:03;58.33;;;29.00;;
17818;SDS011;9034;50.284;19.310;2022-10-23T03:56:06;60.45;;;29.55;;
17818;SDS011;9034;50.284;19.310;2022-10-23T03:57:10;59.95;;;30.65;;
17818;SDS011;9034;50.284;19.310;2022-10-23T03:58:13;58.08;;;29.48;;
17818;SDS011;9034;50.284;19.310;2022-10-23T03:59:17;63.45;;;29.88;;
17818;SDS011;9034;50.284;19.310;2022-10-23T04:00:20;62.90;;;30.17;;
17818;SDS011;9034;50.284;19.310;2022-10-23T04:01:24;58.72;;;30.25;;
17818;SDS011;9034;50.284;19.310;2022-10-23T04:02:28;52.95;;;28.85;;
17818;SDS011;9034;50.284;19.310;2022-10-23T04:03:33;64.47;;;30.75;;
17818;SDS011;9034;50.284;19.310;2022-10-23T04:04:36;64.80;;;30.98;;
17818;SDS011;9034;50.284;19.310;2022-10-23T04:05:40;62.70;;;29.60;;
17818;SDS011;9034;50.284;19.310;2022-10-23T04:06:43;57.42;;;29.65;;
17818;SDS011;9034;50.284;19.310;2022-10-23T04:07:47;61.35;;;30.35;;
17818;SDS011;9034;50.284;19.310;2022-10-23T04:08:50;61.90;;;31.25;;
17818;SDS011;9034;50.284;19.310;2022-10-23T04:09:53;67.57;;;32.63;;
17818;SDS011;9034;50.284;19.310;2022-10-23T04:10:57;72.35;;;34.75;;
17818;SDS011;9034;50.284;19.310;2022-10-23T04:12:08;65.10;;;33.55;;
17818;SDS011;9034;50.284;19.310;2022-10-23T04:13:12;84.72;;;36.97;;
17818;SDS011;9034;50.284;19.310;2022-10-23T04:14:16;72.78;;;37.30;;
17818;SDS011;9034;50.284;19.310;2022-10-23T04:15:19;74.68;;;38.25;;
17818;SDS011;9034;50.284;19.310;2022-10-23T04:16:22;77.75;;;39.30;;
17818;SDS011;9034;50.284;19.310;2022-10-23T04:17:26;80.85;;;39.40;;
17818;SDS011;9034;50.284;19.310;2022-10-23T04:18:35;75.75;;;39.58;;
17818;SDS011;9034;50.284;19.310;2022-10-23T04:19:39;84.88;;;38.33;;
17818;SDS011;9034;50.284;19.310;2022-10-23T04:20:42;87.45;;;38.97;;
17818;SDS011;9034;50.284;19.310;2022-10-23T04:21:46;70.95;;;38.05;;
17818;SDS011;9034;50.284;19.310;2022-10-23T04:22:50;83.82;;;38.15;;
17818;SDS011;9034;50.284;19.310;2022-10-23T04:23:53;81.32;;;38.92;;
17818;SDS011;9034;50.284;19.310;2022-10-23T04:24:56;80.70;;;39.78;;
17818;SDS011;9034;50.284;19.310;2022-10-23T04:25:59;71.50;;;35.85;;
17818;SDS011;9034;50.284;19.310;2022-10-23T04:27:03;75.53;;;37.67;;
17818;SDS011;9034;50.284;19.310;2022-10-23T04:28:06;85.95;;;40.15;;
17818;SDS011;9034;50.284;19.310;2022-10-23T04:29:14;86.55;;;39.28;;
17818;SDS011;9034;50.284;19.310;2022-10-23T04:30:17;78.15;;;38.28;;
17818;SDS011;9034;50.284;19.310;2022-10-23T04:31:21;89.43;;;38.72;;
17818;SDS011;9034;50.284;19.310;2022-10-23T04:32:25;78.43;;;37.92;;
17818;SDS011;9034;50.284;19.310;2022-10-23T04:33:28;76.60;;;38.72;;
17818;SDS011;9034;50.284;19.310;2022-10-23T04:34:33;79.57;;;40.05;;
17818;SDS011;9034;50.284;19.310;2022-10-23T04:35:37;78.80;;;39.92;;
17818;SDS011;9034;50.284;19.310;2022-10-23T04:36:41;79.07;;;39.55;;
17818;SDS011;9034;50.284;19.310;2022-10-23T04:37:44;87.22;;;39.85;;
17818;SDS011;9034;50.284;19.310;2022-10-23T04:38:48;82.03;;;39.47;;
17818;SDS011;9034;50.284;19.310;2022-10-23T04:39:51;76.72;;;39.17;;
17818;SDS011;9034;50.284;19.310;2022-10-23T04:40:55;93.10;;;39.20;;
17818;SDS011;9034;50.284;19.310;2022-10-23T04:41:57;79.50;;;38.17;;
17818;SDS011;9034;50.284;19.310;2022-10-23T04:43:01;80.38;;;39.33;;
17818;SDS011;9034;50.284;19.310;2022-10-23T04:44:08;81.95;;;40.63;;
17818;SDS011;9034;50.284;19.310;2022-10-23T04:45:12;81.13;;;37.80;;
17818;SDS011;9034;50.284;19.310;2022-10-23T04:46:16;83.00;;;37.70;;
17818;SDS011;9034;50.284;19.310;2022-10-23T04:47:21;79.28;;;38.83;;
17818;SDS011;9034;50.284;19.310;2022-10-23T04:48:31;92.43;;;37.38;;
17818;SDS011;9034;50.284;19.310;2022-10-23T04:49:54;87.13;;;40.20;;
17818;SDS011;9034;50.284;19.310;2022-10-23T04:51:29;82.93;;;41.40;;
17818;SDS011;9034;50.284;19.310;2022-10-23T04:52:39;73.97;;;39.17;;
17818;SDS011;9034;50.284;19.310;2022-10-23T04:54:08;91.05;;;40.63;;
17818;SDS011;9034;50.284;19.310;2022-10-23T04:55:20;88.30;;;41.58;;
17818;SDS011;9034;50.284;19.310;2022-10-23T04:56:40;84.45;;;39.85;;
17818;SDS011;9034;50.284;19.310;2022-10-23T04:57:53;93.00;;;41.92;;
17818;SDS011;9034;50.284;19.310;2022-10-23T04:58:58;102.88;;;41.88;;
17818;SDS011;9034;50.284;19.310;2022-10-23T05:00:04;98.88;;;41.33;;
17818;SDS011;9034;50.284;19.310;2022-10-23T05:01:15;109.15;;;41.22;;
17818;SDS011;9034;50.284;19.310;2022-10-23T05:02:19;93.50;;;41.63;;
17818;SDS011;9034;50.284;19.310;2022-10-23T05:03:24;99.45;;;41.55;;
17818;SDS011;9034;50.284;19.310;2022-10-23T05:04:28;102.47;;;42.45;;
17818;SDS011;9034;50.284;19.310;2022-10-23T05:05:50;102.22;;;40.70;;
17818;SDS011;9034;50.284;19.310;2022-10-23T05:07:04;111.40;;;42.90;;
17818;SDS011;9034;50.284;19.310;2022-10-23T05:08:23;121.32;;;45.15;;
17818;SDS011;9034;50.284;19.310;2022-10-23T05:09:45;139.00;;;47.30;;
17818;SDS011;9034;50.284;19.310;2022-10-23T05:10:55;127.25;;;46.65;;
17818;SDS011;9034;50.284;19.310;2022-10-23T05:11:59;121.97;;;45.97;;
17818;SDS011;9034;50.284;19.310;2022-10-23T05:13:02;121.97;;;46.38;;
17818;SDS011;9034;50.284;19.310;2022-10-23T05:14:07;123.35;;;47.33;;
17818;SDS011;9034;50.284;19.310;2022-10-23T05:15:09;126.80;;;46.90;;
17818;SDS011;9034;50.284;19.310;2022-10-23T05:16:19;140.70;;;48.67;;
17818;SDS011;9034;50.284;19.310;2022-10-23T05:17:31;133.40;;;48.55;;
17818;SDS011;9034;50.284;19.310;2022-10-23T05:18:38;125.80;;;50.20;;
17818;SDS011;9034;50.284;19.310;2022-10-23T05:19:45;224.82;;;51.03;;
17818;SDS011;9034;50.284;19.310;2022-10-23T05:20:54;122.50;;;45.92;;
17818;SDS011;9034;50.284;19.310;2022-10-23T05:21:57;149.18;;;49.75;;
17818;SDS011;9034;50.284;19.310;2022-10-23T05:23:19;640.13;;;88.90;;
17818;SDS011;9034;50.284;19.310;2022-10-23T05:24:28;204.60;;;49.20;;
17818;SDS011;9034;50.284;19.310;2022-10-23T05:25:35;175.93;;;44.25;;
17818;SDS011;9034;50.284;19.310;2022-10-23T05:26:51;153.13;;;47.28;;
17818;SDS011;9034;50.284;19.310;2022-10-23T05:27:55;221.27;;;53.67;;
17818;SDS011;9034;50.284;19.310;2022-10-23T05:28:57;199.55;;;50.63;;
17818;SDS011;9034;50.284;19.310;2022-10-23T05:30:02;296.45;;;56.13;;
17818;SDS011;9034;50.284;19.310;2022-10-23T05:31:09;228.57;;;53.55;;
17818;SDS011;9034;50.284;19.310;2022-10-23T05:32:15;412.33;;;64.22;;
17818;SDS011;9034;50.284;19.310;2022-10-23T05:33:18;369.10;;;62.28;;
17818;SDS011;9034;50.284;19.310;2022-10-23T05:34:24;331.88;;;58.42;;
17818;SDS011;9034;50.284;19.310;2022-10-23T05:35:27;209.65;;;54.53;;
17818;SDS011;9034;50.284;19.310;2022-10-23T05:36:33;203.75;;;54.05;;
17818;SDS011;9034;50.284;19.310;2022-10-23T05:37:37;218.13;;;54.28;;
17818;SDS011;9034;50.284;19.310;2022-10-23T05:38:47;214.38;;;54.28;;
17818;SDS011;9034;50.284;19.310;2022-10-23T05:39:52;191.65;;;52.65;;
17818;SDS011;9034;50.284;19.310;2022-10-23T05:40:55;198.65;;;52.53;;
17818;SDS011;9034;50.284;19.310;2022-10-23T05:41:59;220.85;;;55.05;;
17818;SDS011;9034;50.284;19.310;2022-10-23T05:43:02;172.38;;;52.17;;
17818;SDS011;9034;50.284;19.310;2022-10-23T05:44:17;206.00;;;55.13;;
17818;SDS011;9034;50.284;19.310;2022-10-23T05:45:46;135.25;;;47.47;;
17818;SDS011;9034;50.284;19.310;2022-10-23T05:47:16;164.93;;;46.72;;
17818;SDS011;9034;50.284;19.310;2022-10-23T05:48:19;127.60;;;46.20;;
17818;SDS011;9034;50.284;19.310;2022-10-23T05:49:53;168.05;;;47.75;;
17818;SDS011;9034;50.284;19.310;2022-10-23T05:51:26;153.25;;;46.15;;
17818;SDS011;9034;50.284;19.310;2022-10-23T05:52:55;125.93;;;43.25;;
17818;SDS011;9034;50.284;19.310;2022-10-23T05:54:05;133.02;;;41.83;;
17818;SDS011;9034;50.284;19.310;2022-10-23T05:55:17;124.28;;;43.13;;
17818;SDS011;9034;50.284;19.310;2022-10-23T05:56:37;122.20;;;40.97;;
17818;SDS011;9034;50.284;19.310;2022-10-23T05:57:52;108.13;;;38.22;;
17818;SDS011;9034;50.284;19.310;2022-10-23T05:59:16;99.93;;;37.15;;
17818;SDS011;9034;50.284;19.310;2022-10-23T06:00:27;124.32;;;40.22;;
17818;SDS011;9034;50.284;19.310;2022-10-23T06:01:50;102.00;;;38.03;;
17818;SDS011;9034;50.284;19.310;2022-10-23T06:03:04;89.70;;;38.05;;
17818;SDS011;9034;50.284;19.310;2022-10-23T06:04:14;82.25;;;35.55;;
17818;SDS011;9034;50.284;19.310;2022-10-23T06:05:36;91.05;;;37.03;;
17818;SDS011;9034;50.284;19.310;2022-10-23T06:06:52;111.63;;;37.97;;
17818;SDS011;9034;50.284;19.310;2022-10-23T06:07:57;104.28;;;35.38;;
17818;SDS011;9034;50.284;19.310;2022-10-23T06:09:01;81.65;;;33.42;;
17818;SDS011;9034;50.284;19.310;2022-10-23T06:10:08;89.85;;;34.85;;
17818;SDS011;9034;50.284;19.310;2022-10-23T06:11:17;89.60;;;37.25;;
17818;SDS011;9034;50.284;19.310;2022-10-23T06:12:30;81.05;;;35.30;;
17818;SDS011;9034;50.284;19.310;2022-10-23T06:13:34;79.93;;;33.88;;
17818;SDS011;9034;50.284;19.310;2022-10-23T06:14:37;74.20;;;35.03;;
17818;SDS011;9034;50.284;19.310;2022-10-23T06:15:41;77.45;;;34.83;;
17818;SDS011;9034;50.284;19.310;2022-10-23T06:16:52;72.53;;;33.28;;
17818;SDS011;9034;50.284;19.310;2022-10-23T06:17:59;74.57;;;33.92;;
17818;SDS011;9034;50.284;19.310;2022-10-23T06:19:03;68.18;;;35.03;;
17818;SDS011;9034;50.284;19.310;2022-10-23T06:20:07;61.63;;;32.25;;
17818;SDS011;9034;50.284;19.310;2022-10-23T06:21:13;61.92;;;32.70;;
17818;SDS011;9034;50.284;19.310;2022-10-23T06:22:19;63.72;;;33.20;;
17818;SDS011;9034;50.284;19.310;2022-10-23T06:23:32;73.32;;;32.00;;
17818;SDS011;9034;50.284;19.310;2022-10-23T06:24:55;61.05;;;31.15;;
17818;SDS011;9034;50.284;19.310;2022-10-23T06:26:01;62.38;;;30.90;;
17818;SDS011;9034;50.284;19.310;2022-10-23T06:27:27;58.22;;;31.30;;
17818;SDS011;9034;50.284;19.310;2022-10-23T06:28:31;64.50;;;31.20;;
17818;SDS011;9034;50.284;19.310;2022-10-23T06:29:35;57.00;;;31.10;;
17818;SDS011;9034;50.284;19.310;2022-10-23T06:30:39;54.78;;;29.92;;
17818;SDS011;9034;50.284;19.310;2022-10-23T06:31:42;58.22;;;29.92;;
17818;SDS011;9034;50.284;19.310;2022-10-23T06:32:46;52.40;;;29.63;;
17818;SDS011;9034;50.284;19.310;2022-10-23T06:33:49;54.42;;;29.55;;